sensor_id;sensor_type;location;lat;lon;timestamp;P1;durP1;ratioP1;P2;durP2;ratioP2
13057;SDS011;6595;49.578;11.012;2023-07-24T00:00:23;8.9;;;4.8;;
13057;SDS011;6595;49.578;11.012;2023-07-24T00:02:24;8.4;;;4.8;;
13057;SDS011;6595;49.578;11.012;2023-07-24T00:04:23;9.7;;;5.0;;
13057;SDS011;6595;49.578;11.012;2023-07-24T00:06:23;11.0;;;5.3;;
13057;SDS011;6595;49.578;11.012;2023-07-24T00:08:23;11.0;;;5.3;;
13057;SDS011;6595;49.578;11.012;2023-07-24T00:10:24;10.3;;;5.1;;
13057;SDS011;6595;49.578;11.012;2023-07-24T00:12:23;10.6;;;5.3;;
13057;SDS011;6595;49.578;11.012;2023-07-24T00:14:24;9.3;;;5.1;;
13057;SDS011;6595;49.578;11.012;2023-07-24T00:16:23;9.8;;;5.6;;
13057;SDS011;6595;49.578;11.012;2023-07-24T00:18:23;9.8;;;5.6;;
13057;SDS011;6595;49.578;11.012;2023-07-24T00:20:24;11.7;;;5.2;;
13057;SDS011;6595;49.578;11.012;2023-07-24T00:22:23;11.1;;;5.5;;
13057;SDS011;6595;49.578;11.012;2023-07-24T00:24:23;9.7;;;5.5;;
13057;SDS011;6595;49.578;11.012;2023-07-24T00:26:23;10.9;;;5.4;;
13057;SDS011;6595;49.578;11.012;2023-07-24T00:28:24;10.9;;;5.4;;
13057;SDS011;6595;49.578;11.012;2023-07-24T00:30:23;9.7;;;5.2;;
13057;SDS011;6595;49.578;11.012;2023-07-24T00:32:23;10.6;;;5.3;;
13057;SDS011;6595;49.578;11.012;2023-07-24T00:34:23;11.2;;;5.4;;
13057;SDS011;6595;49.578;11.012;2023-07-24T00:36:24;11.2;;;5.4;;
13057;SDS011;6595;49.578;11.012;2023-07-24T00:38:24;9.6;;;5.2;;
13057;SDS011;6595;49.578;11.012;2023-07-24T00:40:23;10.2;;;5.6;;
13057;SDS011;6595;49.578;11.012;2023-07-24T00:42:23;10.6;;;5.0;;
13057;SDS011;6595;49.578;11.012;2023-07-24T00:44:24;10.6;;;5.0;;
13057;SDS011;6595;49.578;11.012;2023-07-24T00:46:23;10.8;;;5.4;;
13057;SDS011;6595;49.578;11.012;2023-07-24T00:48:23;10.4;;;5.4;;
13057;SDS011;6595;49.578;11.012;2023-07-24T00:50:23;9.5;;;5.5;;
13057;SDS011;6595;49.578;11.012;2023-07-24T00:52:24;12.6;;;6.2;;
13057;SDS011;6595;49.578;11.012;2023-07-24T00:54:24;12.6;;;6.2;;
13057;SDS011;6595;49.578;11.012;2023-07-24T00:56:23;10.9;;;6.1;;
13057;SDS011;6595;49.578;11.012;2023-07-24T00:58:23;10.9;;;6.1;;
13057;SDS011;6595;49.578;11.012;2023-07-24T01:00:24;10.9;;;6.1;;
13057;SDS011;6595;49.578;11.012;2023-07-24T01:02:23;10.0;;;5.3;;
13057;SDS011;6595;49.578;11.012;2023-07-24T01:04:23;10.0;;;5.3;;
13057;SDS011;6595;49.578;11.012;2023-07-24T01:06:24;9.3;;;5.6;;
13057;SDS011;6595;49.578;11.012;2023-07-24T01:08:23;11.2;;;5.5;;
13057;SDS011;6595;49.578;11.012;2023-07-24T01:10:23;10.6;;;5.8;;
13057;SDS011;6595;49.578;11.012;2023-07-24T01:12:26;11.5;;;5.8;;
13057;SDS011;6595;49.578;11.012;2023-07-24T01:14:24;11.2;;;5.5;;
13057;SDS011;6595;49.578;11.012;2023-07-24T01:16:23;11.2;;;5.5;;
13057;SDS011;6595;49.578;11.012;2023-07-24T01:18:24;11.5;;;5.6;;
13057;SDS011;6595;49.578;11.012;2023-07-24T01:20:23;11.3;;;5.9;;
13057;SDS011;6595;49.578;11.012;2023-07-24T01:22:25;11.7;;;5.7;;
13057;SDS011;6595;49.578;11.012;2023-07-24T01:24:28;10.0;;;5.5;;
13057;SDS011;6595;49.578;11.012;2023-07-24T01:26:24;10.0;;;5.5;;
13057;SDS011;6595;49.578;11.012;2023-07-24T01:28:23;11.9;;;5.7;;
13057;SDS011;6595;49.578;11.012;2023-07-24T01:30:23;10.4;;;5.8;;
13057;SDS011;6595;49.578;11.012;2023-07-24T01:32:23;10.4;;;5.6;;
13057;SDS011;6595;49.578;11.012;2023-07-24T01:34:23;10.4;;;5.6;;
13057;SDS011;6595;49.578;11.012;2023-07-24T01:36:24;13.6;;;5.9;;
13057;SDS011;6595;49.578;11.012;2023-07-24T01:38:24;10.9;;;5.5;;
13057;SDS011;6595;49.578;11.012;2023-07-24T01:40:23;11.2;;;5.7;;
13057;SDS011;6595;49.578;11.012;2023-07-24T01:42:24;10.0;;;5.6;;
13057;SDS011;6595;49.578;11.012;2023-07-24T01:44:23;10.0;;;5.6;;
13057;SDS011;6595;49.578;11.012;2023-07-24T01:46:23;12.1;;;6.2;;
13057;SDS011;6595;49.578;11.012;2023-07-24T01:48:23;10.3;;;5.8;;
13057;SDS011;6595;49.578;11.012;2023-07-24T01:50:24;10.6;;;6.1;;
13057;SDS011;6595;49.578;11.012;2023-07-24T01:52:23;10.9;;;5.9;;
13057;SDS011;6595;49.578;11.012;2023-07-24T01:54:23;10.9;;;5.9;;
13057;SDS011;6595;49.578;11.012;2023-07-24T01:56:24;11.3;;;5.9;;
13057;SDS011;6595;49.578;11.012;2023-07-24T01:58:23;10.9;;;6.0;;
13057;SDS011;6595;49.578;11.012;2023-07-24T02:00:23;10.5;;;5.8;;
13057;SDS011;6595;49.578;11.012;2023-07-24T02:02:24;11.8;;;5.9;;
13057;SDS011;6595;49.578;11.012;2023-07-24T02:04:24;11.0;;;5.9;;
13057;SDS011;6595;49.578;11.012;2023-07-24T02:06:23;11.0;;;5.9;;
13057;SDS011;6595;49.578;11.012;2023-07-24T02:08:23;10.6;;;5.7;;
13057;SDS011;6595;49.578;11.012;2023-07-24T02:10:24;11.0;;;6.3;;
13057;SDS011;6595;49.578;11.012;2023-07-24T02:12:23;11.2;;;5.8;;
13057;SDS011;6595;49.578;11.012;2023-07-24T02:14:23;11.2;;;5.8;;
13057;SDS011;6595;49.578;11.012;2023-07-24T02:16:23;10.8;;;5.7;;
13057;SDS011;6595;49.578;11.012;2023-07-24T02:18:23;12.3;;;6.4;;
13057;SDS011;6595;49.578;11.012;2023-07-24T02:20:23;11.3;;;5.9;;
13057;SDS011;6595;49.578;11.012;2023-07-24T02:22:23;11.2;;;6.3;;
13057;SDS011;6595;49.578;11.012;2023-07-24T02:24:23;11.2;;;6.3;;
13057;SDS011;6595;49.578;11.012;2023-07-24T02:26:23;12.0;;;6.2;;
13057;SDS011;6595;49.578;11.012;2023-07-24T02:28:24;10.4;;;6.2;;
13057;SDS011;6595;49.578;11.012;2023-07-24T02:30:23;12.0;;;6.4;;
13057;SDS011;6595;49.578;11.012;2023-07-24T02:32:24;11.5;;;5.8;;
13057;SDS011;6595;49.578;11.012;2023-07-24T02:34:24;11.5;;;5.8;;
13057;SDS011;6595;49.578;11.012;2023-07-24T02:36:23;10.3;;;5.8;;
13057;SDS011;6595;49.578;11.012;2023-07-24T02:38:23;11.4;;;6.1;;
13057;SDS011;6595;49.578;11.012;2023-07-24T02:40:23;11.4;;;6.3;;
13057;SDS011;6595;49.578;11.012;2023-07-24T02:42:23;12.2;;;6.4;;
13057;SDS011;6595;49.578;11.012;2023-07-24T02:44:24;12.2;;;6.4;;
13057;SDS011;6595;49.578;11.012;2023-07-24T02:46:23;10.7;;;5.7;;
13057;SDS011;6595;49.578;11.012;2023-07-24T02:48:23;13.2;;;6.3;;
13057;SDS011;6595;49.578;11.012;2023-07-24T02:50:24;11.5;;;5.9;;
13057;SDS011;6595;49.578;11.012;2023-07-24T02:52:23;11.5;;;5.9;;
13057;SDS011;6595;49.578;11.012;2023-07-24T02:54:23;12.0;;;6.4;;
13057;SDS011;6595;49.578;11.012;2023-07-24T02:56:23;12.0;;;6.6;;
13057;SDS011;6595;49.578;11.012;2023-07-24T02:58:23;11.9;;;6.4;;
13057;SDS011;6595;49.578;11.012;2023-07-24T03:00:23;9.7;;;5.8;;
13057;SDS011;6595;49.578;11.012;2023-07-24T03:02:23;9.7;;;5.8;;
13057;SDS011;6595;49.578;11.012;2023-07-24T03:04:23;11.9;;;6.7;;
13057;SDS011;6595;49.578;11.012;2023-07-24T03:06:23;10.9;;;6.4;;
13057;SDS011;6595;49.578;11.012;2023-07-24T03:08:23;12.1;;;6.3;;
13057;SDS011;6595;49.578;11.012;2023-07-24T03:10:24;12.1;;;6.3;;
13057;SDS011;6595;49.578;11.012;2023-07-24T03:12:23;11.2;;;6.4;;
13057;SDS011;6595;49.578;11.012;2023-07-24T03:14:23;11.6;;;6.8;;
13057;SDS011;6595;49.578;11.012;2023-07-24T03:16:23;11.3;;;6.9;;
13057;SDS011;6595;49.578;11.012;2023-07-24T03:18:24;11.3;;;6.9;;
13057;SDS011;6595;49.578;11.012;2023-07-24T03:20:23;12.5;;;6.8;;
13057;SDS011;6595;49.578;11.012;2023-07-24T03:22:24;12.5;;;6.8;;
13057;SDS011;6595;49.578;11.012;2023-07-24T03:24:23;12.8;;;7.0;;
13057;SDS011;6595;49.578;11.012;2023-07-24T03:26:23;12.7;;;7.0;;
13057;SDS011;6595;49.578;11.012;2023-07-24T03:28:23;12.7;;;6.9;;
13057;SDS011;6595;49.578;11.012;2023-07-24T03:30:24;14.2;;;7.3;;
13057;SDS011;6595;49.578;11.012;2023-07-24T03:32:23;14.2;;;7.3;;
13057;SDS011;6595;49.578;11.012;2023-07-24T03:34:23;12.9;;;6.8;;
13057;SDS011;6595;49.578;11.012;2023-07-24T03:36:23;11.1;;;6.6;;
13057;SDS011;6595;49.578;11.012;2023-07-24T03:38:24;12.5;;;7.3;;
13057;SDS011;6595;49.578;11.012;2023-07-24T03:40:23;13.3;;;7.0;;
13057;SDS011;6595;49.578;11.012;2023-07-24T03:42:25;13.3;;;7.0;;
13057;SDS011;6595;49.578;11.012;2023-07-24T03:44:24;13.2;;;7.1;;
13057;SDS011;6595;49.578;11.012;2023-07-24T03:46:23;12.8;;;7.0;;
13057;SDS011;6595;49.578;11.012;2023-07-24T03:48:23;13.3;;;7.0;;
13057;SDS011;6595;49.578;11.012;2023-07-24T03:50:24;13.3;;;7.0;;
13057;SDS011;6595;49.578;11.012;2023-07-24T03:52:23;13.5;;;6.7;;
13057;SDS011;6595;49.578;11.012;2023-07-24T03:54:23;12.8;;;6.9;;
13057;SDS011;6595;49.578;11.012;2023-07-24T03:56:24;11.9;;;6.7;;
13057;SDS011;6595;49.578;11.012;2023-07-24T03:58:23;11.9;;;6.7;;
13057;SDS011;6595;49.578;11.012;2023-07-24T04:00:23;13.3;;;6.9;;
13057;SDS011;6595;49.578;11.012;2023-07-24T04:02:24;13.0;;;6.8;;
13057;SDS011;6595;49.578;11.012;2023-07-24T04:04:24;12.6;;;6.7;;
13057;SDS011;6595;49.578;11.012;2023-07-24T04:06:23;12.8;;;6.8;;
13057;SDS011;6595;49.578;11.012;2023-07-24T04:08:23;12.8;;;6.8;;
13057;SDS011;6595;49.578;11.012;2023-07-24T04:10:24;12.4;;;7.0;;
13057;SDS011;6595;49.578;11.012;2023-07-24T04:12:23;12.1;;;7.2;;
13057;SDS011;6595;49.578;11.012;2023-07-24T04:14:23;12.4;;;7.0;;
13057;SDS011;6595;49.578;11.012;2023-07-24T04:16:24;12.7;;;6.7;;
13057;SDS011;6595;49.578;11.012;2023-07-24T04:18:23;12.7;;;6.7;;
13057;SDS011;6595;49.578;11.012;2023-07-24T04:20:23;12.8;;;7.1;;
13057;SDS011;6595;49.578;11.012;2023-07-24T04:22:24;12.1;;;6.9;;
13057;SDS011;6595;49.578;11.012;2023-07-24T04:24:23;12.1;;;6.9;;
13057;SDS011;6595;49.578;11.012;2023-07-24T04:26:23;13.2;;;6.9;;
13057;SDS011;6595;49.578;11.012;2023-07-24T04:28:24;13.2;;;6.9;;
13057;SDS011;6595;49.578;11.012;2023-07-24T04:30:23;12.7;;;7.3;;
13057;SDS011;6595;49.578;11.012;2023-07-24T04:32:23;13.8;;;7.3;;
13057;SDS011;6595;49.578;11.012;2023-07-24T04:34:23;12.3;;;6.9;;
13057;SDS011;6595;49.578;11.012;2023-07-24T04:36:23;12.3;;;6.9;;
13057;SDS011;6595;49.578;11.012;2023-07-24T04:38:23;11.7;;;6.8;;
13057;SDS011;6595;49.578;11.012;2023-07-24T04:40:23;13.1;;;7.0;;
13057;SDS011;6595;49.578;11.012;2023-07-24T04:42:23;13.5;;;6.9;;
13057;SDS011;6595;49.578;11.012;2023-07-24T04:44:23;12.9;;;7.4;;
13057;SDS011;6595;49.578;11.012;2023-07-24T04:46:23;12.9;;;7.4;;
13057;SDS011;6595;49.578;11.012;2023-07-24T04:48:24;12.4;;;6.8;;
13057;SDS011;6595;49.578;11.012;2023-07-24T04:50:23;12.4;;;6.8;;
13057;SDS011;6595;49.578;11.012;2023-07-24T04:52:23;13.6;;;6.8;;
13057;SDS011;6595;49.578;11.012;2023-07-24T04:54:24;13.6;;;6.8;;
13057;SDS011;6595;49.578;11.012;2023-07-24T04:56:23;12.9;;;7.0;;
13057;SDS011;6595;49.578;11.012;2023-07-24T04:58:23;12.9;;;7.0;;
13057;SDS011;6595;49.578;11.012;2023-07-24T05:00:23;12.7;;;7.2;;
13057;SDS011;6595;49.578;11.012;2023-07-24T05:02:23;13.2;;;7.1;;
13057;SDS011;6595;49.578;11.012;2023-07-24T05:04:23;13.9;;;7.2;;
13057;SDS011;6595;49.578;11.012;2023-07-24T05:06:24;12.2;;;7.5;;
13057;SDS011;6595;49.578;11.012;2023-07-24T05:08:23;12.2;;;7.5;;
13057;SDS011;6595;49.578;11.012;2023-07-24T05:10:23;13.3;;;7.0;;
13057;SDS011;6595;49.578;11.012;2023-07-24T05:12:24;14.3;;;7.3;;
13057;SDS011;6595;49.578;11.012;2023-07-24T05:14:23;11.9;;;7.0;;
13057;SDS011;6595;49.578;11.012;2023-07-24T05:16:23;15.2;;;7.7;;
13057;SDS011;6595;49.578;11.012;2023-07-24T05:18:23;15.2;;;7.7;;
13057;SDS011;6595;49.578;11.012;2023-07-24T05:20:23;13.8;;;7.2;;
13057;SDS011;6595;49.578;11.012;2023-07-24T05:22:23;15.3;;;7.5;;
13057;SDS011;6595;49.578;11.012;2023-07-24T05:24:23;14.3;;;7.6;;
13057;SDS011;6595;49.578;11.012;2023-07-24T05:26:24;14.3;;;7.6;;
13057;SDS011;6595;49.578;11.012;2023-07-24T05:28:23;14.0;;;7.7;;
13057;SDS011;6595;49.578;11.012;2023-07-24T05:30:23;15.5;;;8.4;;
13057;SDS011;6595;49.578;11.012;2023-07-24T05:32:23;15.5;;;8.4;;
13057;SDS011;6595;49.578;11.012;2023-07-24T05:34:23;14.1;;;7.6;;
13057;SDS011;6595;49.578;11.012;2023-07-24T05:36:23;14.1;;;7.6;;
13057;SDS011;6595;49.578;11.012;2023-07-24T05:38:24;13.7;;;7.3;;
13057;SDS011;6595;49.578;11.012;2023-07-24T05:40:23;15.4;;;8.0;;
13057;SDS011;6595;49.578;11.012;2023-07-24T05:42:23;15.4;;;8.0;;
13057;SDS011;6595;49.578;11.012;2023-07-24T05:44:24;12.6;;;7.2;;
13057;SDS011;6595;49.578;11.012;2023-07-24T05:46:23;12.6;;;7.2;;
13057;SDS011;6595;49.578;11.012;2023-07-24T05:48:23;12.1;;;7.0;;
13057;SDS011;6595;49.578;11.012;2023-07-24T05:50:24;14.8;;;7.8;;
13057;SDS011;6595;49.578;11.012;2023-07-24T05:52:23;14.7;;;7.6;;
13057;SDS011;6595;49.578;11.012;2023-07-24T05:54:23;13.8;;;7.3;;
13057;SDS011;6595;49.578;11.012;2023-07-24T05:56:24;13.8;;;7.3;;
13057;SDS011;6595;49.578;11.012;2023-07-24T05:58:23;15.9;;;7.7;;
13057;SDS011;6595;49.578;11.012;2023-07-24T06:00:23;12.3;;;7.2;;
13057;SDS011;6595;49.578;11.012;2023-07-24T06:02:24;11.7;;;7.1;;
13057;SDS011;6595;49.578;11.012;2023-07-24T06:04:24;11.7;;;7.1;;
13057;SDS011;6595;49.578;11.012;2023-07-24T06:06:23;12.7;;;6.9;;
13057;SDS011;6595;49.578;11.012;2023-07-24T06:08:23;11.0;;;6.6;;
13057;SDS011;6595;49.578;11.012;2023-07-24T06:10:23;11.6;;;6.8;;
13057;SDS011;6595;49.578;11.012;2023-07-24T06:12:23;11.6;;;6.8;;
13057;SDS011;6595;49.578;11.012;2023-07-24T06:14:23;12.6;;;7.4;;
13057;SDS011;6595;49.578;11.012;2023-07-24T06:16:23;12.8;;;7.1;;
13057;SDS011;6595;49.578;11.012;2023-07-24T06:18:23;11.4;;;7.0;;
13057;SDS011;6595;49.578;11.012;2023-07-24T06:20:23;11.3;;;6.7;;
13057;SDS011;6595;49.578;11.012;2023-07-24T06:22:24;14.6;;;6.9;;
13057;SDS011;6595;49.578;11.012;2023-07-24T06:24:23;14.6;;;6.9;;
13057;SDS011;6595;49.578;11.012;2023-07-24T06:26:23;13.2;;;7.3;;
13057;SDS011;6595;49.578;11.012;2023-07-24T06:28:24;12.4;;;7.0;;
13057;SDS011;6595;49.578;11.012;2023-07-24T06:30:24;11.7;;;6.4;;
13057;SDS011;6595;49.578;11.012;2023-07-24T06:32:23;13.5;;;7.1;;
13057;SDS011;6595;49.578;11.012;2023-07-24T06:34:23;13.5;;;7.1;;
13057;SDS011;6595;49.578;11.012;2023-07-24T06:36:23;12.8;;;7.5;;
13057;SDS011;6595;49.578;11.012;2023-07-24T06:38:23;12.9;;;7.2;;
13057;SDS011;6595;49.578;11.012;2023-07-24T06:40:23;12.4;;;6.7;;
13057;SDS011;6595;49.578;11.012;2023-07-24T06:42:23;12.8;;;6.5;;
13057;SDS011;6595;49.578;11.012;2023-07-24T06:44:23;12.8;;;6.5;;
13057;SDS011;6595;49.578;11.012;2023-07-24T06:46:23;11.8;;;6.6;;
13057;SDS011;6595;49.578;11.012;2023-07-24T06:48:23;13.3;;;7.2;;
13057;SDS011;6595;49.578;11.012;2023-07-24T06:50:23;11.8;;;6.8;;
13057;SDS011;6595;49.578;11.012;2023-07-24T06:52:23;11.8;;;6.8;;
13057;SDS011;6595;49.578;11.012;2023-07-24T06:54:24;11.3;;;6.8;;
13057;SDS011;6595;49.578;11.012;2023-07-24T06:56:23;13.5;;;6.9;;
13057;SDS011;6595;49.578;11.012;2023-07-24T06:58:23;12.8;;;6.6;;
13057;SDS011;6595;49.578;11.012;2023-07-24T07:00:23;11.7;;;6.6;;
13057;SDS011;6595;49.578;11.012;2023-07-24T07:02:23;11.7;;;6.6;;
13057;SDS011;6595;49.578;11.012;2023-07-24T07:04:23;12.5;;;6.8;;
13057;SDS011;6595;49.578;11.012;2023-07-24T07:06:23;12.8;;;7.0;;
13057;SDS011;6595;49.578;11.012;2023-07-24T07:08:23;12.5;;;6.6;;
13057;SDS011;6595;49.578;11.012;2023-07-24T07:10:24;12.5;;;6.6;;
13057;SDS011;6595;49.578;11.012;2023-07-24T07:12:23;13.0;;;6.8;;
13057;SDS011;6595;49.578;11.012;2023-07-24T07:14:23;12.1;;;6.6;;
13057;SDS011;6595;49.578;11.012;2023-07-24T07:16:24;12.9;;;7.0;;
13057;SDS011;6595;49.578;11.012;2023-07-24T07:18:23;12.8;;;6.9;;
13057;SDS011;6595;49.578;11.012;2023-07-24T07:20:23;12.8;;;6.9;;
13057;SDS011;6595;49.578;11.012;2023-07-24T07:22:24;14.5;;;7.0;;
13057;SDS011;6595;49.578;11.012;2023-07-24T07:24:23;11.6;;;6.6;;
13057;SDS011;6595;49.578;11.012;2023-07-24T07:26:23;13.0;;;6.9;;
13057;SDS011;6595;49.578;11.012;2023-07-24T07:28:24;12.1;;;6.4;;
13057;SDS011;6595;49.578;11.012;2023-07-24T07:30:23;12.1;;;6.4;;
13057;SDS011;6595;49.578;11.012;2023-07-24T07:32:23;12.0;;;6.7;;
13057;SDS011;6595;49.578;11.012;2023-07-24T07:34:23;12.7;;;6.6;;
13057;SDS011;6595;49.578;11.012;2023-07-24T07:36:23;14.9;;;7.4;;
13057;SDS011;6595;49.578;11.012;2023-07-24T07:38:24;12.4;;;7.2;;
13057;SDS011;6595;49.578;11.012;2023-07-24T07:40:23;12.4;;;7.2;;
13057;SDS011;6595;49.578;11.012;2023-07-24T07:42:23;12.3;;;7.3;;
13057;SDS011;6595;49.578;11.012;2023-07-24T07:44:24;11.2;;;6.3;;
13057;SDS011;6595;49.578;11.012;2023-07-24T07:46:23;13.2;;;7.1;;
13057;SDS011;6595;49.578;11.012;2023-07-24T07:48:23;13.2;;;7.1;;
13057;SDS011;6595;49.578;11.012;2023-07-24T07:50:24;11.4;;;6.5;;
13057;SDS011;6595;49.578;11.012;2023-07-24T07:52:23;11.7;;;6.5;;
13057;SDS011;6595;49.578;11.012;2023-07-24T07:54:23;11.0;;;6.7;;
13057;SDS011;6595;49.578;11.012;2023-07-24T07:56:23;11.0;;;6.7;;
13057;SDS011;6595;49.578;11.012;2023-07-24T07:58:23;12.8;;;6.8;;
13057;SDS011;6595;49.578;11.012;2023-07-24T08:00:23;14.4;;;7.0;;
13057;SDS011;6595;49.578;11.012;2023-07-24T08:02:23;14.4;;;7.0;;
13057;SDS011;6595;49.578;11.012;2023-07-24T08:04:23;13.0;;;6.8;;
13057;SDS011;6595;49.578;11.012;2023-07-24T08:06:24;13.0;;;6.8;;
13057;SDS011;6595;49.578;11.012;2023-07-24T08:08:23;11.6;;;6.8;;
13057;SDS011;6595;49.578;11.012;2023-07-24T08:10:23;11.6;;;6.8;;
13057;SDS011;6595;49.578;11.012;2023-07-24T08:12:24;12.6;;;6.9;;
13057;SDS011;6595;49.578;11.012;2023-07-24T08:14:23;13.0;;;6.8;;
13057;SDS011;6595;49.578;11.012;2023-07-24T08:16:23;13.0;;;6.8;;
13057;SDS011;6595;49.578;11.012;2023-07-24T08:18:23;13.8;;;6.7;;
13057;SDS011;6595;49.578;11.012;2023-07-24T08:20:23;11.7;;;7.0;;
13057;SDS011;6595;49.578;11.012;2023-07-24T08:22:23;12.9;;;7.2;;
13057;SDS011;6595;49.578;11.012;2023-07-24T08:24:24;13.8;;;6.9;;
13057;SDS011;6595;49.578;11.012;2023-07-24T08:26:23;13.8;;;6.9;;
13057;SDS011;6595;49.578;11.012;2023-07-24T08:28:23;13.0;;;7.4;;
13057;SDS011;6595;49.578;11.012;2023-07-24T08:30:24;13.5;;;7.1;;
13057;SDS011;6595;49.578;11.012;2023-07-24T08:32:23;13.4;;;6.5;;
13057;SDS011;6595;49.578;11.012;2023-07-24T08:34:23;13.4;;;6.5;;
13057;SDS011;6595;49.578;11.012;2023-07-24T08:36:24;13.2;;;7.2;;
13057;SDS011;6595;49.578;11.012;2023-07-24T08:38:23;13.2;;;7.2;;
13057;SDS011;6595;49.578;11.012;2023-07-24T08:40:23;14.3;;;7.1;;
13057;SDS011;6595;49.578;11.012;2023-07-24T08:42:24;14.0;;;7.1;;
13057;SDS011;6595;49.578;11.012;2023-07-24T08:44:23;15.5;;;7.2;;
13057;SDS011;6595;49.578;11.012;2023-07-24T08:46:23;13.0;;;7.2;;
13057;SDS011;6595;49.578;11.012;2023-07-24T08:48:24;13.0;;;7.2;;
13057;SDS011;6595;49.578;11.012;2023-07-24T08:50:23;14.0;;;7.2;;
13057;SDS011;6595;49.578;11.012;2023-07-24T08:52:23;14.0;;;7.2;;
13057;SDS011;6595;49.578;11.012;2023-07-24T08:54:24;14.8;;;7.1;;
13057;SDS011;6595;49.578;11.012;2023-07-24T08:56:23;14.8;;;7.1;;
13057;SDS011;6595;49.578;11.012;2023-07-24T08:58:23;13.2;;;7.6;;
13057;SDS011;6595;49.578;11.012;2023-07-24T09:00:23;13.3;;;7.1;;
13057;SDS011;6595;49.578;11.012;2023-07-24T09:02:23;12.3;;;7.3;;
13057;SDS011;6595;49.578;11.012;2023-07-24T09:04:23;12.0;;;7.2;;
13057;SDS011;6595;49.578;11.012;2023-07-24T09:06:25;13.5;;;7.3;;
13057;SDS011;6595;49.578;11.012;2023-07-24T09:08:30;13.5;;;7.3;;
13057;SDS011;6595;49.578;11.012;2023-07-24T09:10:24;13.8;;;6.8;;
13057;SDS011;6595;49.578;11.012;2023-07-24T09:12:23;15.3;;;7.3;;
13057;SDS011;6595;49.578;11.012;2023-07-24T09:14:24;14.7;;;6.8;;
13057;SDS011;6595;49.578;11.012;2023-07-24T09:16:24;14.7;;;6.8;;
13057;SDS011;6595;49.578;11.012;2023-07-24T09:18:23;12.8;;;7.4;;
13057;SDS011;6595;49.578;11.012;2023-07-24T09:20:23;14.4;;;7.4;;
13057;SDS011;6595;49.578;11.012;2023-07-24T09:22:23;14.4;;;7.7;;
13057;SDS011;6595;49.578;11.012;2023-07-24T09:24:24;14.7;;;7.1;;
13057;SDS011;6595;49.578;11.012;2023-07-24T09:26:23;14.7;;;7.1;;
13057;SDS011;6595;49.578;11.012;2023-07-24T09:28:23;12.3;;;7.2;;
13057;SDS011;6595;49.578;11.012;2023-07-24T09:30:24;16.1;;;7.7;;
13057;SDS011;6595;49.578;11.012;2023-07-24T09:32:25;17.7;;;8.0;;
13057;SDS011;6595;49.578;11.012;2023-07-24T09:34:23;15.1;;;8.2;;
13057;SDS011;6595;49.578;11.012;2023-07-24T09:36:24;15.1;;;8.2;;
13057;SDS011;6595;49.578;11.012;2023-07-24T09:38:23;17.6;;;7.8;;
13057;SDS011;6595;49.578;11.012;2023-07-24T09:40:23;12.8;;;8.0;;
13057;SDS011;6595;49.578;11.012;2023-07-24T09:42:27;16.2;;;7.8;;
13057;SDS011;6595;49.578;11.012;2023-07-24T09:44:25;16.2;;;7.8;;
13057;SDS011;6595;49.578;11.012;2023-07-24T09:46:24;17.0;;;7.3;;
13057;SDS011;6595;49.578;11.012;2023-07-24T09:48:24;17.2;;;7.6;;
13057;SDS011;6595;49.578;11.012;2023-07-24T09:50:24;15.3;;;7.7;;
13057;SDS011;6595;49.578;11.012;2023-07-24T09:52:23;15.3;;;7.7;;
13057;SDS011;6595;49.578;11.012;2023-07-24T09:54:25;12.6;;;7.4;;
13057;SDS011;6595;49.578;11.012;2023-07-24T09:56:23;12.6;;;7.4;;
13057;SDS011;6595;49.578;11.012;2023-07-24T09:58:23;14.0;;;7.5;;
13057;SDS011;6595;49.578;11.012;2023-07-24T10:00:24;13.0;;;7.3;;
13057;SDS011;6595;49.578;11.012;2023-07-24T10:02:23;12.0;;;7.0;;
13057;SDS011;6595;49.578;11.012;2023-07-24T10:04:23;12.0;;;7.0;;
13057;SDS011;6595;49.578;11.012;2023-07-24T10:06:24;12.1;;;6.8;;
13057;SDS011;6595;49.578;11.012;2023-07-24T10:08:23;12.3;;;7.0;;
13057;SDS011;6595;49.578;11.012;2023-07-24T10:10:23;12.5;;;6.8;;
13057;SDS011;6595;49.578;11.012;2023-07-24T10:12:24;12.1;;;6.8;;
13057;SDS011;6595;49.578;11.012;2023-07-24T10:14:23;12.1;;;6.8;;
13057;SDS011;6595;49.578;11.012;2023-07-24T10:16:23;12.3;;;7.1;;
13057;SDS011;6595;49.578;11.012;2023-07-24T10:18:25;13.7;;;7.3;;
13057;SDS011;6595;49.578;11.012;2023-07-24T10:20:23;15.1;;;7.3;;
13057;SDS011;6595;49.578;11.012;2023-07-24T10:22:23;15.1;;;7.3;;
13057;SDS011;6595;49.578;11.012;2023-07-24T10:24:28;13.8;;;7.0;;
13057;SDS011;6595;49.578;11.012;2023-07-24T10:26:24;14.4;;;7.5;;
13057;SDS011;6595;49.578;11.012;2023-07-24T10:28:30;13.3;;;7.2;;
13057;SDS011;6595;49.578;11.012;2023-07-24T10:30:27;12.5;;;7.1;;
13057;SDS011;6595;49.578;11.012;2023-07-24T10:32:23;13.3;;;7.6;;
13057;SDS011;6595;49.578;11.012;2023-07-24T10:34:23;13.3;;;7.6;;
13057;SDS011;6595;49.578;11.012;2023-07-24T10:36:23;14.3;;;7.6;;
13057;SDS011;6595;49.578;11.012;2023-07-24T10:38:32;11.9;;;7.1;;
13057;SDS011;6595;49.578;11.012;2023-07-24T10:40:24;11.9;;;7.1;;
13057;SDS011;6595;49.578;11.012;2023-07-24T10:42:23;13.9;;;7.0;;
13057;SDS011;6595;49.578;11.012;2023-07-24T10:44:30;13.9;;;7.0;;
13057;SDS011;6595;49.578;11.012;2023-07-24T10:46:23;11.5;;;6.8;;
13057;SDS011;6595;49.578;11.012;2023-07-24T10:48:24;10.4;;;6.4;;
13057;SDS011;6595;49.578;11.012;2023-07-24T10:50:24;10.4;;;6.4;;
13057;SDS011;6595;49.578;11.012;2023-07-24T10:52:27;14.6;;;7.5;;
13057;SDS011;6595;49.578;11.012;2023-07-24T10:54:23;14.6;;;7.5;;
13057;SDS011;6595;49.578;11.012;2023-07-24T10:56:23;13.4;;;7.2;;
13057;SDS011;6595;49.578;11.012;2023-07-24T10:58:24;14.0;;;7.7;;
13057;SDS011;6595;49.578;11.012;2023-07-24T11:00:23;14.0;;;7.7;;
13057;SDS011;6595;49.578;11.012;2023-07-24T11:02:23;13.2;;;7.2;;
13057;SDS011;6595;49.578;11.012;2023-07-24T11:04:23;13.2;;;7.2;;
13057;SDS011;6595;49.578;11.012;2023-07-24T11:06:23;13.1;;;7.5;;
13057;SDS011;6595;49.578;11.012;2023-07-24T11:08:24;13.4;;;7.6;;
13057;SDS011;6595;49.578;11.012;2023-07-24T11:10:23;13.4;;;7.6;;
13057;SDS011;6595;49.578;11.012;2023-07-24T11:12:24;14.9;;;7.5;;
13057;SDS011;6595;49.578;11.012;2023-07-24T11:14:23;12.1;;;7.0;;
13057;SDS011;6595;49.578;11.012;2023-07-24T11:16:23;12.9;;;6.8;;
13057;SDS011;6595;49.578;11.012;2023-07-24T11:18:24;14.7;;;7.8;;
13057;SDS011;6595;49.578;11.012;2023-07-24T11:20:23;14.7;;;7.8;;
13057;SDS011;6595;49.578;11.012;2023-07-24T11:22:24;18.0;;;7.9;;
13057;SDS011;6595;49.578;11.012;2023-07-24T11:24:23;14.2;;;7.0;;
13057;SDS011;6595;49.578;11.012;2023-07-24T11:26:24;14.9;;;7.3;;
13057;SDS011;6595;49.578;11.012;2023-07-24T11:28:23;14.9;;;7.3;;
13057;SDS011;6595;49.578;11.012;2023-07-24T11:30:23;19.1;;;7.3;;
13057;SDS011;6595;49.578;11.012;2023-07-24T11:32:23;19.1;;;7.3;;
13057;SDS011;6595;49.578;11.012;2023-07-24T11:34:24;13.9;;;7.7;;
13057;SDS011;6595;49.578;11.012;2023-07-24T11:36:23;20.5;;;8.0;;
13057;SDS011;6595;49.578;11.012;2023-07-24T11:38:23;19.6;;;8.4;;
13057;SDS011;6595;49.578;11.012;2023-07-24T11:40:30;19.6;;;8.4;;
13057;SDS011;6595;49.578;11.012;2023-07-24T11:42:24;17.7;;;8.7;;
13057;SDS011;6595;49.578;11.012;2023-07-24T11:44:24;16.8;;;7.8;;
13057;SDS011;6595;49.578;11.012;2023-07-24T11:46:23;23.5;;;8.0;;
13057;SDS011;6595;49.578;11.012;2023-07-24T11:48:24;24.8;;;8.8;;
13057;SDS011;6595;49.578;11.012;2023-07-24T11:50:23;24.8;;;8.8;;
13057;SDS011;6595;49.578;11.012;2023-07-24T11:52:23;19.2;;;8.0;;
13057;SDS011;6595;49.578;11.012;2023-07-24T11:54:24;21.2;;;8.1;;
13057;SDS011;6595;49.578;11.012;2023-07-24T11:56:23;15.9;;;8.0;;
13057;SDS011;6595;49.578;11.012;2023-07-24T11:58:25;15.6;;;7.5;;
13057;SDS011;6595;49.578;11.012;2023-07-24T12:00:23;15.6;;;7.5;;
13057;SDS011;6595;49.578;11.012;2023-07-24T12:02:25;18.5;;;7.9;;
13057;SDS011;6595;49.578;11.012;2023-07-24T12:04:23;15.0;;;7.7;;
13057;SDS011;6595;49.578;11.012;2023-07-24T12:06:24;15.8;;;7.7;;
13057;SDS011;6595;49.578;11.012;2023-07-24T12:08:29;13.9;;;7.2;;
13057;SDS011;6595;49.578;11.012;2023-07-24T12:10:25;13.9;;;7.2;;
13057;SDS011;6595;49.578;11.012;2023-07-24T12:12:24;14.9;;;7.3;;
13057;SDS011;6595;49.578;11.012;2023-07-24T12:14:23;18.1;;;8.0;;